Time;durP1;ratioP1;P1;durP2;ratioP2;P2;SDS_P1;SDS_P2;PMS_P1;PMS_P2;Temp;Humidity;BMP_temperature;BMP_pressure;BME280_temperature;BME280_humidity;BME280_pressure;Samples;Min_cycle;Max_cycle;Signal;HPM_P1;HPM_P2
2022/08/05 00:00:13;;;;;;;1.85;1.60;;;24.70;44.30;;;;;;4983334;28;20085;-71
2022/08/05 00:02:39;;;;;;;1.45;1.33;;;24.70;44.40;;;;;;4968535;28;20054;-72
2022/08/05 00:05:05;;;;;;;2.08;1.52;;;24.70;44.50;;;;;;4960524;28;20042;-73
2022/08/05 00:07:30;;;;;;;3.65;1.30;;;24.60;44.60;;;;;;4998175;28;20046;-70
2022/08/05 00:09:56;;;;;;;2.80;1.40;;;24.60;44.60;;;;;;4944610;28;20053;-70
2022/08/05 00:12:21;;;;;;;1.63;1.20;;;24.60;44.60;;;;;;4961117;28;20031;-71
2022/08/05 00:14:47;;;;;;;4.95;1.55;;;24.60;44.70;;;;;;4965782;28;20503;-71
2022/08/05 00:17:12;;;;;;;3.38;1.60;;;24.50;44.70;;;;;;4985617;28;20030;-71
2022/08/05 00:19:38;;;;;;;1.80;1.50;;;24.50;44.90;;;;;;4953170;28;20844;-70
2022/08/05 00:22:03;;;;;;;3.75;1.63;;;24.50;44.90;;;;;;4970739;28;20053;-71
2022/08/05 00:24:29;;;;;;;5.38;1.50;;;24.50;45.10;;;;;;4951617;28;20042;-71
2022/08/05 00:26:55;;;;;;;4.78;1.67;;;24.50;45.20;;;;;;4967327;28;20034;-72
2022/08/05 00:29:20;;;;;;;2.45;1.30;;;24.40;45.30;;;;;;4951832;28;20505;-70
2022/08/05 00:31:46;;;;;;;2.85;1.63;;;24.40;45.40;;;;;;4979750;28;20042;-71
2022/08/05 00:34:12;;;;;;;3.58;1.35;;;24.40;45.40;;;;;;4946927;28;20030;-72
2022/08/05 00:36:37;;;;;;;2.17;1.90;;;24.40;45.50;;;;;;4960044;28;20038;-71
2022/08/05 00:39:03;;;;;;;2.20;1.60;;;24.40;45.60;;;;;;4973904;28;20034;-70
2022/08/05 00:41:30;;;;;;;1.63;1.40;;;24.30;45.60;;;;;;4958386;28;20045;-71
2022/08/05 00:43:55;;;;;;;7.30;1.58;;;24.30;45.80;;;;;;4980648;28;20041;-72
2022/08/05 00:46:21;;;;;;;2.25;1.77;;;24.30;45.90;;;;;;4999241;28;20388;-71
2022/08/05 00:48:46;;;;;;;2.63;1.60;;;24.20;46.00;;;;;;4991779;28;20037;-71
2022/08/05 00:51:13;;;;;;;4.18;1.70;;;24.20;45.90;;;;;;4993577;28;20038;-71
2022/08/05 00:53:38;;;;;;;1.80;1.70;;;24.20;46.00;;;;;;4993959;28;20065;-73
2022/08/05 00:56:04;;;;;;;1.50;1.40;;;24.20;46.80;;;;;;5004871;28;20786;-71
2022/08/05 00:58:30;;;;;;;1.60;1.50;;;24.10;46.10;;;;;;5003246;28;20041;-71
2022/08/05 01:00:55;;;;;;;3.28;1.65;;;24.10;46.10;;;;;;5006913;28;20453;-70
2022/08/05 01:03:21;;;;;;;1.58;1.48;;;24.10;46.20;;;;;;5016792;28;20026;-72
2022/08/05 01:05:46;;;;;;;2.53;1.33;;;24.10;46.20;;;;;;5001299;28;20038;-72
2022/08/05 01:08:12;;;;;;;1.85;1.73;;;24.10;46.30;;;;;;5003722;28;20428;-71
2022/08/05 01:10:43;;;;;;;1.50;1.30;;;24.00;46.30;;;;;;4992748;28;20518;-72
2022/08/05 01:13:32;;;;;;;1.98;1.75;;;24.10;46.50;;;;;;4990891;28;20107;-71
2022/08/05 01:15:59;;;;;;;3.47;2.10;;;24.00;47.00;;;;;;4993774;28;20126;-70
2022/08/05 01:18:26;;;;;;;3.05;1.73;;;24.00;46.70;;;;;;5012425;28;20413;-72
2022/08/05 01:21:12;;;;;;;1.63;1.52;;;23.90;46.80;;;;;;4950804;28;20034;-71
2022/08/05 01:23:44;;;;;;;3.10;1.70;;;23.90;47.30;;;;;;4973410;28;20112;-71
2022/08/05 01:26:33;;;;;;;2.08;1.88;;;23.90;47.20;;;;;;4987135;28;20168;-71
2022/08/05 01:29:02;;;;;;;3.15;1.95;;;23.80;47.60;;;;;;4989119;28;20113;-71
2022/08/05 01:31:42;;;;;;;3.33;2.67;;;23.90;47.40;;;;;;4992400;28;20033;-71
2022/08/05 01:34:26;;;;;;;2.22;1.95;;;23.80;47.50;;;;;;4986202;28;20038;-72
2022/08/05 01:37:01;;;;;;;2.42;1.77;;;23.80;47.70;;;;;;4987035;28;20025;-72
2022/08/05 01:39:27;;;;;;;2.10;1.75;;;23.90;47.60;;;;;;4979143;28;20050;-73
2022/08/05 01:41:53;;;;;;;2.20;2.00;;;23.90;47.40;;;;;;4990099;28;20117;-71
2022/08/05 01:44:18;;;;;;;6.60;2.17;;;23.90;47.50;;;;;;4988150;28;20030;-71
2022/08/05 01:46:44;;;;;;;3.85;2.03;;;23.90;47.60;;;;;;4977041;28;20839;-71
2022/08/05 01:49:11;;;;;;;2.67;1.92;;;23.90;47.80;;;;;;4977374;28;20556;-71
2022/08/05 01:51:36;;;;;;;6.88;1.92;;;23.90;48.00;;;;;;4945857;28;20121;-71
2022/08/05 01:54:03;;;;;;;5.50;1.92;;;23.90;48.30;;;;;;4991616;28;20132;-71
2022/08/05 01:56:29;;;;;;;4.65;2.13;;;23.90;48.60;;;;;;4994814;28;20037;-71
2022/08/05 01:58:55;;;;;;;2.83;1.80;;;24.00;48.90;;;;;;5009841;28;20559;-72
2022/08/05 02:01:20;;;;;;;4.18;1.88;;;24.00;49.20;;;;;;5018179;28;20048;-72
2022/08/05 02:03:46;;;;;;;8.18;1.90;;;24.10;49.50;;;;;;4994194;28;20030;-71
2022/08/05 02:06:12;;;;;;;4.53;1.80;;;24.10;49.80;;;;;;5008234;28;20433;-73
2022/08/05 02:08:37;;;;;;;7.65;2.22;;;24.10;50.10;;;;;;4985611;28;20033;-71
2022/08/05 02:11:08;;;;;;;4.05;1.90;;;24.20;50.40;;;;;;4967485;28;20104;-70
2022/08/05 02:13:38;;;;;;;7.78;2.35;;;24.20;50.60;;;;;;5002621;28;21072;-73
2022/08/05 02:16:13;;;;;;;5.68;2.10;;;24.30;50.80;;;;;;5008958;28;20034;-71
2022/08/05 02:18:48;;;;;;;3.42;1.92;;;24.30;50.90;;;;;;4960649;28;20053;-71
2022/08/05 02:21:24;;;;;;;4.53;2.40;;;24.30;51.40;;;;;;4956789;28;20033;-71
2022/08/05 02:23:51;;;;;;;3.97;1.73;;;24.40;51.70;;;;;;4996161;28;20053;-71
2022/08/05 02:26:23;;;;;;;9.25;2.70;;;24.40;51.50;;;;;;4978393;28;20452;-71
2022/08/05 02:28:48;;;;;;;6.35;1.92;;;24.50;52.10;;;;;;4989469;28;20038;-71
2022/08/05 02:31:22;;;;;;;8.15;2.00;;;24.40;51.80;;;;;;4970616;28;20038;-72
2022/08/05 02:33:50;;;;;;;5.57;2.20;;;24.50;52.00;;;;;;4980258;28;20041;-72
2022/08/05 02:36:17;;;;;;;7.18;2.30;;;24.50;52.20;;;;;;4986182;28;20038;-72
2022/08/05 02:38:46;;;;;;;4.55;2.25;;;24.50;52.30;;;;;;4989814;28;20045;-71
2022/08/05 02:41:12;;;;;;;8.15;2.60;;;24.50;52.60;;;;;;4971813;28;20057;-71
2022/08/05 02:43:38;;;;;;;7.18;2.42;;;24.50;52.70;;;;;;4994547;28;20034;-72
2022/08/05 02:46:04;;;;;;;3.20;2.42;;;24.60;52.90;;;;;;4980695;28;20119;-70
2022/08/05 02:48:30;;;;;;;4.47;2.25;;;24.60;52.90;;;;;;4997989;28;20045;-71
2022/08/05 02:50:59;;;;;;;7.43;2.20;;;24.60;53.00;;;;;;4955652;28;20036;-71
2022/08/05 02:53:25;;;;;;;6.22;2.00;;;24.60;53.20;;;;;;4995299;28;20029;-71
2022/08/05 02:55:51;;;;;;;7.07;2.47;;;24.60;53.30;;;;;;5017269;28;20028;-71
2022/08/05 02:58:17;;;;;;;4.18;2.17;;;24.60;53.40;;;;;;4967910;28;20074;-71
2022/08/05 03:00:43;;;;;;;8.43;2.72;;;24.70;53.60;;;;;;5005510;28;20049;-72
2022/08/05 03:03:09;;;;;;;7.47;2.20;;;24.70;53.60;;;;;;4987001;28;20281;-71
2022/08/05 03:05:34;;;;;;;6.07;2.10;;;24.70;53.60;;;;;;4996269;28;20050;-71
2022/08/05 03:08:00;;;;;;;5.47;2.42;;;24.70;53.60;;;;;;5007617;28;20040;-71
2022/08/05 03:10:25;;;;;;;5.00;2.17;;;24.70;53.70;;;;;;5006274;28;20041;-70
2022/08/05 03:12:51;;;;;;;4.78;2.42;;;24.70;53.80;;;;;;4995544;28;20037;-72
2022/08/05 03:15:17;;;;;;;4.35;2.10;;;24.70;53.80;;;;;;4979894;28;20607;-71
2022/08/05 03:17:42;;;;;;;6.68;2.13;;;24.70;54.00;;;;;;4985698;28;20042;-72
2022/08/05 03:20:09;;;;;;;6.45;2.45;;;24.70;53.90;;;;;;5007377;28;20033;-71
2022/08/05 03:22:34;;;;;;;4.43;2.47;;;24.70;53.90;;;;;;5012912;28;20057;-71
2022/08/05 03:25:00;;;;;;;9.43;2.55;;;24.70;54.10;;;;;;5007746;28;20067;-71
2022/08/05 03:27:25;;;;;;;5.68;2.42;;;24.70;54.20;;;;;;4998752;28;20093;-71
2022/08/05 03:29:51;;;;;;;3.53;2.47;;;24.70;54.30;;;;;;5000011;28;20037;-71
2022/08/05 03:32:18;;;;;;;5.57;2.05;;;24.70;54.20;;;;;;5008487;28;20119;-71
2022/08/05 03:34:43;;;;;;;4.47;2.42;;;24.70;54.20;;;;;;4969132;28;20048;-72
2022/08/05 03:37:09;;;;;;;8.27;2.58;;;24.60;54.00;;;;;;4963513;28;20495;-72
2022/08/05 03:39:34;;;;;;;4.72;1.88;;;24.60;54.00;;;;;;4972970;28;20046;-71
2022/08/05 03:42:00;;;;;;;3.40;2.20;;;24.60;54.10;;;;;;4997633;28;20068;-71
2022/08/05 03:44:25;;;;;;;4.22;2.55;;;24.60;54.10;;;;;;5001456;28;20033;-71
2022/08/05 03:46:51;;;;;;;3.08;1.85;;;24.60;54.10;;;;;;4974731;28;20043;-71
2022/08/05 03:49:16;;;;;;;5.38;2.50;;;24.60;54.20;;;;;;4992014;28;20607;-72
2022/08/05 03:51:55;;;;;;;2.90;1.92;;;24.60;54.20;;;;;;4984458;28;20084;-71
2022/08/05 03:54:53;;;;;;;5.40;2.60;;;24.60;54.50;;;;;;4978719;28;20046;-71
2022/08/05 03:57:23;;;;;;;2.47;2.10;;;24.60;55.00;;;;;;4967836;28;20034;-73
2022/08/05 03:59:52;;;;;;;5.50;2.13;;;24.60;54.50;;;;;;4972789;28;20041;-71
2022/08/05 04:02:19;;;;;;;4.90;2.20;;;24.60;54.50;;;;;;5001133;28;20102;-72
2022/08/05 04:04:44;;;;;;;6.50;2.38;;;24.60;54.60;;;;;;4974928;28;20044;-71
2022/08/05 04:07:10;;;;;;;6.93;2.30;;;24.60;54.60;;;;;;4984045;28;20034;-71
2022/08/05 04:09:35;;;;;;;6.80;2.30;;;24.50;54.60;;;;;;4993323;28;20041;-71
2022/08/05 04:12:01;;;;;;;4.03;2.47;;;24.50;54.60;;;;;;4991283;28;20580;-72
2022/08/05 04:14:26;;;;;;;8.55;2.40;;;24.60;54.60;;;;;;4996405;28;20124;-71
2022/08/05 04:16:52;;;;;;;5.18;2.45;;;24.50;54.60;;;;;;4980952;28;20081;-71
2022/08/05 04:19:18;;;;;;;3.63;2.28;;;24.50;54.80;;;;;;5012054;28;20131;-71
2022/08/05 04:21:43;;;;;;;6.47;2.63;;;24.60;54.90;;;;;;5013539;28;20650;-72
2022/08/05 04:24:09;;;;;;;2.45;2.20;;;24.60;55.10;;;;;;5013950;28;20105;-71
2022/08/05 04:26:34;;;;;;;2.88;2.22;;;24.60;55.10;;;;;;5008244;28;20046;-71
2022/08/05 04:29:00;;;;;;;4.15;2.00;;;24.60;55.10;;;;;;4969831;28;20037;-71
2022/08/05 04:31:25;;;;;;;5.65;2.47;;;24.60;55.20;;;;;;4996013;28;20114;-71
2022/08/05 04:33:51;;;;;;;2.53;2.03;;;24.60;55.20;;;;;;4988529;28;20034;-70
2022/08/05 04:36:17;;;;;;;3.05;2.42;;;24.60;55.20;;;;;;4997226;28;20443;-71
2022/08/05 04:38:42;;;;;;;3.15;2.17;;;24.70;55.20;;;;;;5002354;28;20527;-71
2022/08/05 04:41:08;;;;;;;2.90;2.10;;;24.60;55.10;;;;;;4966187;28;20116;-71
2022/08/05 04:43:33;;;;;;;4.03;2.08;;;24.60;55.10;;;;;;4993143;28;20030;-72
2022/08/05 04:45:59;;;;;;;5.75;2.30;;;24.70;55.30;;;;;;4974387;28;20038;-71
2022/08/05 04:48:24;;;;;;;2.75;2.00;;;24.60;55.20;;;;;;4988707;28;20039;-71
2022/08/05 04:50:50;;;;;;;3.75;2.20;;;24.60;55.20;;;;;;4996863;28;20834;-71
2022/08/05 04:53:16;;;;;;;3.05;1.88;;;24.70;55.30;;;;;;5016466;28;20064;-72
2022/08/05 04:55:42;;;;;;;5.85;2.30;;;24.70;55.40;;;;;;4997242;28;20104;-72
2022/08/05 04:58:09;;;;;;;3.80;2.28;;;24.70;55.30;;;;;;4947803;28;20034;-72
2022/08/05 05:00:35;;;;;;;4.50;2.28;;;24.70;55.40;;;;;;4940610;28;20043;-71
2022/08/05 05:03:01;;;;;;;5.28;2.38;;;24.70;55.30;;;;;;4981002;28;20140;-72
2022/08/05 05:05:26;;;;;;;4.65;2.05;;;24.70;55.30;;;;;;4996214;28;20124;-71
2022/08/05 05:07:53;;;;;;;6.13;2.33;;;24.70;55.30;;;;;;4983051;28;20860;-71
2022/08/05 05:10:19;;;;;;;5.25;2.00;;;24.70;55.40;;;;;;4996350;28;20038;-71
2022/08/05 05:12:44;;;;;;;3.08;2.03;;;24.80;55.40;;;;;;4971484;28;20038;-72
2022/08/05 05:15:10;;;;;;;7.28;2.20;;;24.80;55.30;;;;;;4983980;28;20030;-72
2022/08/05 05:17:39;;;;;;;6.22;2.30;;;24.80;55.20;;;;;;4987960;28;20045;-72
2022/08/05 05:20:06;;;;;;;2.55;1.67;;;24.90;55.10;;;;;;4985215;28;20041;-73
2022/08/05 05:22:31;;;;;;;3.22;1.92;;;24.90;54.80;;;;;;4991452;28;20087;-72
2022/08/05 05:24:57;;;;;;;4.18;1.70;;;25.00;54.70;;;;;;4992392;28;20030;-72
2022/08/05 05:27:22;;;;;;;2.67;1.55;;;25.00;54.60;;;;;;4970802;28;22202;-71
2022/08/05 05:29:48;;;;;;;5.43;1.77;;;25.00;54.40;;;;;;4999282;28;20037;-73
2022/08/05 05:32:13;;;;;;;2.80;1.67;;;25.10;54.40;;;;;;4993498;28;20086;-72
2022/08/05 05:34:39;;;;;;;4.75;2.00;;;25.10;54.30;;;;;;4981627;28;20049;-72
2022/08/05 05:37:04;;;;;;;2.95;1.90;;;25.10;54.10;;;;;;4986465;28;20041;-72
2022/08/05 05:39:30;;;;;;;3.08;1.75;;;25.20;54.10;;;;;;4992605;28;20105;-72
2022/08/05 05:41:55;;;;;;;2.70;1.60;;;25.20;54.10;;;;;;4965470;28;20050;-72
2022/08/05 05:44:21;;;;;;;2.75;1.70;;;25.20;54.00;;;;;;4964607;28;20040;-72
2022/08/05 05:46:47;;;;;;;3.60;1.80;;;25.20;54.00;;;;;;4978640;28;20044;-74
2022/08/05 05:49:12;;;;;;;4.80;1.80;;;25.20;53.90;;;;;;4999095;28;20041;-72
2022/08/05 05:51:38;;;;;;;6.00;1.80;;;25.20;53.90;;;;;;4976324;28;20067;-72
2022/08/05 05:54:03;;;;;;;8.93;1.77;;;25.30;53.90;;;;;;4998109;28;20454;-73
2022/08/05 05:56:30;;;;;;;2.13;1.70;;;25.30;53.80;;;;;;4990654;28;20117;-72
2022/08/05 05:58:56;;;;;;;4.03;1.80;;;25.40;53.90;;;;;;4988010;28;20573;-72
2022/08/05 06:01:21;;;;;;;4.65;1.70;;;25.40;53.90;;;;;;4982126;28;20124;-73
2022/08/05 06:03:47;;;;;;;8.68;2.47;;;25.40;53.80;;;;;;4992047;28;20030;-73
2022/08/05 06:06:13;;;;;;;2.83;1.70;;;25.50;53.90;;;;;;4970068;28;20033;-72
2022/08/05 06:08:38;;;;;;;24.65;7.25;;;25.50;53.90;;;;;;4982529;28;20723;-72
2022/08/05 06:11:04;;;;;;;44.83;12.18;;;25.50;54.20;;;;;;4970989;28;20038;-72
2022/08/05 06:13:29;;;;;;;13.85;4.20;;;25.50;54.30;;;;;;4976099;28;20117;-72
2022/08/05 06:15:55;;;;;;;98.32;23.05;;;25.60;54.40;;;;;;4957946;28;20061;-72
2022/08/05 06:18:20;;;;;;;118.25;29.42;;;25.50;54.40;;;;;;4957477;28;20040;-72
2022/08/05 06:20:46;;;;;;;48.55;13.40;;;25.50;54.60;;;;;;4985266;28;20044;-71
2022/08/05 06:23:11;;;;;;;10.70;4.22;;;25.50;54.60;;;;;;4970362;28;20049;-71
2022/08/05 06:25:37;;;;;;;6.28;2.60;;;25.60;54.70;;;;;;4979154;28;20038;-72
2022/08/05 06:28:02;;;;;;;5.55;2.38;;;25.50;55.60;;;;;;5001737;28;20044;-72
2022/08/05 06:30:28;;;;;;;3.63;2.45;;;25.50;55.10;;;;;;4979504;28;20037;-72
2022/08/05 06:32:54;;;;;;;3.88;1.98;;;25.60;55.30;;;;;;4982305;28;20628;-72
2022/08/05 06:35:20;;;;;;;4.55;2.22;;;25.60;55.40;;;;;;4968393;28;20425;-72
2022/08/05 06:37:45;;;;;;;2.15;1.80;;;25.50;55.40;;;;;;4987575;28;20076;-72
2022/08/05 06:40:11;;;;;;;2.50;2.20;;;25.60;55.40;;;;;;4988384;28;20040;-72
2022/08/05 06:42:37;;;;;;;4.30;2.00;;;25.60;55.50;;;;;;4966042;28;20050;-72
2022/08/05 06:45:03;;;;;;;3.00;1.92;;;25.60;55.60;;;;;;4963266;28;20033;-73
2022/08/05 06:47:28;;;;;;;2.75;2.05;;;25.70;55.60;;;;;;4995731;28;20064;-73
2022/08/05 06:49:54;;;;;;;6.13;2.60;;;25.80;55.60;;;;;;4979985;28;20050;-72
2022/08/05 06:52:19;;;;;;;6.82;2.38;;;25.80;55.70;;;;;;4980444;28;20064;-72
2022/08/05 06:54:45;;;;;;;3.70;2.00;;;25.90;55.80;;;;;;4996041;28;20124;-72
2022/08/05 06:57:13;;;;;;;3.83;2.08;;;26.00;55.70;;;;;;4970339;28;20065;-72
2022/08/05 06:59:39;;;;;;;3.78;1.95;;;26.00;55.50;;;;;;4973815;28;20042;-71
2022/08/05 07:02:04;;;;;;;4.00;2.00;;;26.00;55.40;;;;;;4974599;28;20049;-71
2022/08/05 07:04:30;;;;;;;2.45;1.83;;;26.10;55.30;;;;;;4993276;28;20037;-73
2022/08/05 07:06:55;;;;;;;3.05;1.75;;;26.10;55.30;;;;;;5002141;28;20053;-73
2022/08/05 07:09:21;;;;;;;4.03;2.08;;;26.20;55.20;;;;;;4990119;28;20176;-72
2022/08/05 07:11:46;;;;;;;4.00;2.10;;;26.20;55.10;;;;;;4973139;28;20125;-73
2022/08/05 07:17:04;;;;;;;3.50;1.98;;;26.40;54.90;;;;;;4981532;28;20514;-72
2022/08/05 07:19:29;;;;;;;2.85;1.77;;;26.50;54.90;;;;;;4957557;28;20049;-73
2022/08/05 07:21:55;;;;;;;5.18;2.10;;;26.60;54.70;;;;;;4978208;28;20166;-72
2022/08/05 07:24:21;;;;;;;4.57;2.25;;;26.70;54.60;;;;;;4976542;28;20041;-72
2022/08/05 07:26:47;;;;;;;5.03;1.63;;;26.70;54.50;;;;;;5000366;28;20400;-72
2022/08/05 07:29:12;;;;;;;5.93;1.95;;;26.80;54.40;;;;;;4980472;28;20045;-72
2022/08/05 07:31:38;;;;;;;3.15;2.70;;;26.90;54.30;;;;;;4965342;28;20045;-71
2022/08/05 07:34:03;;;;;;;2.55;1.83;;;27.00;54.20;;;;;;4991992;28;20186;-73
2022/08/05 07:36:29;;;;;;;3.00;1.95;;;27.10;54.00;;;;;;4996887;28;20064;-72
2022/08/05 07:38:55;;;;;;;3.15;2.00;;;27.30;54.00;;;;;;4985006;28;20026;-73
2022/08/05 07:41:21;;;;;;;3.13;1.92;;;27.40;53.70;;;;;;4964783;28;20112;-72
2022/08/05 07:43:47;;;;;;;4.93;1.90;;;27.50;53.50;;;;;;4972487;28;20095;-73
2022/08/05 07:46:12;;;;;;;2.45;1.88;;;27.60;53.30;;;;;;4998523;28;20459;-72
2022/08/05 07:48:38;;;;;;;4.13;2.20;;;27.60;53.00;;;;;;4992420;28;20438;-72
2022/08/05 07:51:04;;;;;;;3.20;1.80;;;27.70;52.90;;;;;;4944510;28;20095;-73
2022/08/05 07:53:29;;;;;;;3.80;1.80;;;27.80;52.70;;;;;;4969684;28;20476;-71
2022/08/05 07:55:55;;;;;;;2.47;1.95;;;27.90;52.60;;;;;;5001615;28;20034;-72
2022/08/05 07:58:20;;;;;;;2.03;1.85;;;28.00;52.50;;;;;;4959749;28;20026;-72
2022/08/05 08:00:46;;;;;;;2.67;2.00;;;28.20;52.30;;;;;;4979539;28;20041;-72
2022/08/05 08:03:12;;;;;;;3.28;1.88;;;28.20;52.00;;;;;;5002205;28;20035;-73
2022/08/05 08:05:43;;;;;;;2.05;1.63;;;28.30;51.90;;;;;;4961973;28;20069;-73
2022/08/05 08:08:12;;;;;;;2.63;1.90;;;28.50;51.70;;;;;;4981375;28;20735;-73
2022/08/05 08:10:37;;;;;;;3.80;2.00;;;28.60;51.50;;;;;;4950790;28;20475;-73
2022/08/05 08:13:03;;;;;;;7.38;2.28;;;28.80;51.30;;;;;;4958530;28;20040;-72
2022/08/05 08:15:29;;;;;;;4.10;1.92;;;29.00;51.10;;;;;;4984587;28;20034;-73
2022/08/05 08:17:54;;;;;;;3.40;2.10;;;29.10;50.80;;;;;;5000705;28;20124;-73
2022/08/05 08:20:21;;;;;;;3.97;2.35;;;29.20;50.60;;;;;;4971398;28;20049;-73
2022/08/05 08:22:50;;;;;;;3.95;1.88;;;29.40;50.30;;;;;;4965653;28;20049;-74
2022/08/05 08:25:17;;;;;;;2.55;1.88;;;29.50;49.90;;;;;;4982841;28;20585;-73
2022/08/05 08:27:43;;;;;;;2.58;2.25;;;29.70;49.70;;;;;;4985860;28;20042;-73
2022/08/05 08:30:10;;;;;;;2.80;1.85;;;29.90;49.60;;;;;;4974885;28;20038;-72
2022/08/05 08:32:36;;;;;;;2.53;1.73;;;30.10;49.30;;;;;;4983812;28;20040;-73
2022/08/05 08:35:01;;;;;;;1.80;1.60;;;30.20;48.80;;;;;;4968609;28;20042;-73
2022/08/05 08:37:27;;;;;;;3.55;1.95;;;30.40;48.50;;;;;;4970976;28;20491;-73
2022/08/05 08:39:52;;;;;;;4.80;1.60;;;30.60;48.10;;;;;;4998764;28;20073;-73
2022/08/05 08:42:18;;;;;;;4.28;2.30;;;30.80;47.70;;;;;;4960997;28;20139;-74
2022/08/05 08:44:43;;;;;;;2.35;1.95;;;30.90;47.40;;;;;;4968637;28;20656;-73
2022/08/05 08:47:09;;;;;;;2.30;1.80;;;31.00;47.00;;;;;;4996407;28;20585;-74
2022/08/05 08:49:35;;;;;;;2.53;1.80;;;31.20;46.70;;;;;;4969883;28;20625;-73
2022/08/05 08:52:11;;;;;;;2.40;1.73;;;31.40;46.40;;;;;;4956136;28;20421;-72
2022/08/05 08:54:36;;;;;;;2.50;1.77;;;31.50;46.10;;;;;;4971265;28;20257;-74
2022/08/05 08:57:05;;;;;;;3.08;1.65;;;31.70;45.90;;;;;;4982647;28;20116;-73
2022/08/05 08:59:30;;;;;;;2.15;1.67;;;31.80;45.50;;;;;;4984091;28;20041;-73
2022/08/05 09:01:56;;;;;;;1.80;1.55;;;32.00;45.20;;;;;;4981025;28;20394;-73
2022/08/05 09:04:21;;;;;;;2.15;1.52;;;32.10;44.90;;;;;;4977501;28;20045;-74
2022/08/05 09:06:47;;;;;;;2.03;1.60;;;32.30;44.50;;;;;;4970751;28;20049;-73
2022/08/05 09:09:12;;;;;;;1.77;1.67;;;32.40;44.10;;;;;;4980985;28;20081;-74
2022/08/05 09:11:38;;;;;;;3.03;1.60;;;32.50;43.80;;;;;;4995284;28;20038;-73
2022/08/05 09:14:03;;;;;;;2.08;1.25;;;32.70;43.40;;;;;;4989201;28;20029;-73
2022/08/05 09:16:29;;;;;;;2.35;1.23;;;32.90;42.90;;;;;;4982823;28;22757;-74
2022/08/05 09:18:54;;;;;;;4.20;1.33;;;33.00;42.30;;;;;;4987395;28;20513;-74
2022/08/05 09:21:23;;;;;;;4.80;1.30;;;33.20;41.80;;;;;;4985236;28;20752;-74
2022/08/05 09:24:04;;;;;;;3.03;1.33;;;33.40;41.30;;;;;;4973613;28;20148;-73
2022/08/05 09:26:30;;;;;;;2.42;1.20;;;33.50;40.20;;;;;;4989178;28;20065;-73
2022/08/05 09:28:58;;;;;;;1.25;1.15;;;33.50;40.50;;;;;;4959785;28;20068;-73
2022/08/05 09:31:24;;;;;;;2.92;1.50;;;33.60;40.20;;;;;;4994495;28;20045;-73
2022/08/05 09:33:54;;;;;;;1.77;1.48;;;33.70;39.90;;;;;;4989365;28;20445;-75
2022/08/05 09:36:19;;;;;;;1.38;1.23;;;33.80;39.70;;;;;;4977867;28;20042;-73
2022/08/05 09:38:58;;;;;;;1.33;1.23;;;33.90;39.50;;;;;;4994567;28;20030;-74
2022/08/05 09:41:23;;;;;;;3.13;1.50;;;34.00;38.60;;;;;;4972187;28;21972;-73
2022/08/05 09:43:49;;;;;;;1.95;1.30;;;34.10;39.00;;;;;;4982920;28;20120;-74
2022/08/05 09:46:28;;;;;;;5.55;1.70;;;34.20;38.80;;;;;;4968901;28;20030;-75
2022/08/05 09:48:55;;;;;;;2.72;1.55;;;34.30;38.20;;;;;;4950054;28;20042;-73
2022/08/05 09:51:31;;;;;;;5.32;1.35;;;34.40;38.40;;;;;;4974020;28;20038;-74
2022/08/05 09:53:57;;;;;;;1.90;1.27;;;34.50;37.70;;;;;;4974942;28;20036;-74
2022/08/05 09:56:25;;;;;;;4.00;1.35;;;34.60;38.10;;;;;;4959597;28;20031;-74
2022/08/05 09:59:16;;;;;;;4.32;1.30;;;34.60;37.90;;;;;;4967968;28;20068;-73
2022/08/05 10:01:42;;;;;;;1.67;1.40;;;34.60;38.10;;;;;;4960371;28;20368;-74
2022/08/05 10:04:12;;;;;;;4.75;1.52;;;34.60;37.80;;;;;;4960190;28;20501;-74
2022/08/05 10:06:54;;;;;;;2.60;1.73;;;34.70;37.70;;;;;;4952730;28;20039;-73
2022/08/05 10:09:22;;;;;;;2.63;1.50;;;34.60;37.20;;;;;;4936178;28;20039;-74
2022/08/05 10:11:49;;;;;;;2.63;1.88;;;34.60;37.50;;;;;;4981973;28;20030;-74
2022/08/05 10:14:29;;;;;;;2.05;1.30;;;34.60;37.40;;;;;;4963504;28;20078;-73
2022/08/05 10:16:55;;;;;;;1.85;1.30;;;34.70;37.20;;;;;;4964731;28;20376;-73
2022/08/05 10:19:21;;;;;;;2.45;1.20;;;34.70;37.40;;;;;;4968152;28;20033;-74
2022/08/05 10:21:48;;;;;;;3.80;2.10;;;34.70;37.30;;;;;;4965271;28;20045;-73
2022/08/05 10:24:15;;;;;;;2.20;1.40;;;34.80;37.40;;;;;;4979159;28;20033;-73
2022/08/05 10:26:41;;;;;;;4.03;1.80;;;34.90;37.20;;;;;;4951614;28;20045;-73
2022/08/05 10:29:07;;;;;;;4.68;1.85;;;34.90;37.00;;;;;;4961828;28;20039;-73
2022/08/05 10:31:32;;;;;;;3.95;1.30;;;35.20;37.00;;;;;;4969464;28;20042;-74
2022/08/05 10:33:58;;;;;;;3.67;1.42;;;35.30;36.90;;;;;;4972464;28;20269;-74
2022/08/05 10:36:26;;;;;;;1.50;1.10;;;35.40;36.60;;;;;;4955056;28;20440;-76
2022/08/05 10:38:57;;;;;;;1.77;1.15;;;35.60;36.50;;;;;;4956459;28;20522;-75
2022/08/05 10:41:38;;;;;;;1.70;1.25;;;35.80;36.20;;;;;;4953918;28;20077;-75
2022/08/05 10:44:10;;;;;;;1.90;1.15;;;36.00;35.60;;;;;;4981621;28;20487;-74
2022/08/05 10:46:46;;;;;;;1.63;1.10;;;36.10;35.60;;;;;;4941704;28;20669;-74
2022/08/05 10:49:11;;;;;;;1.35;1.23;;;36.10;34.90;;;;;;4972894;28;20140;-74
2022/08/05 10:51:46;;;;;;;1.52;1.25;;;36.10;35.20;;;;;;4952158;28;20065;-74
2022/08/05 10:54:12;;;;;;;3.13;1.50;;;36.00;34.70;;;;;;4948312;28;20027;-75
2022/08/05 10:56:52;;;;;;;1.30;1.13;;;36.00;34.80;;;;;;4949659;28;20042;-74
2022/08/05 10:59:27;;;;;;;1.33;1.00;;;36.00;34.30;;;;;;4969246;28;20038;-75
2022/08/05 11:02:06;;;;;;;1.13;1.02;;;36.00;34.50;;;;;;4937991;28;20461;-74
2022/08/05 11:04:37;;;;;;;1.63;0.80;;;36.10;34.00;;;;;;4982116;28;20493;-74
2022/08/05 11:07:05;;;;;;;1.00;0.98;;;36.20;34.20;;;;;;4966128;28;20036;-75
2022/08/05 11:09:38;;;;;;;1.20;1.10;;;36.20;33.90;;;;;;4994247;28;20034;-75
2022/08/05 11:12:03;;;;;;;0.75;0.70;;;36.30;34.10;;;;;;4979812;28;20042;-74
2022/08/05 11:14:32;;;;;;;1.02;0.93;;;36.40;33.40;;;;;;4965177;28;20388;-74
2022/08/05 11:17:25;;;;;;;1.27;1.00;;;36.40;33.10;;;;;;4941478;28;20054;-73
2022/08/05 11:19:52;;;;;;;0.98;0.85;;;36.40;32.00;;;;;;4982901;28;20042;-74
2022/08/05 11:22:48;;;;;;;0.85;0.80;;;36.40;32.70;;;;;;4982452;28;20042;-74
2022/08/05 11:25:30;;;;;;;1.02;0.75;;;36.40;31.80;;;;;;4971498;28;20060;-74
2022/08/05 11:27:56;;;;;;;2.20;1.10;;;36.40;32.00;;;;;;4969090;28;21034;-73
2022/08/05 11:30:22;;;;;;;0.98;0.88;;;36.30;32.30;;;;;;4950339;28;20042;-74
2022/08/05 11:32:47;;;;;;;1.25;1.02;;;36.30;32.30;;;;;;4990234;28;20052;-73
2022/08/05 11:35:50;;;;;;;1.23;1.08;;;36.30;32.20;;;;;;4988057;28;20036;-73
2022/08/05 11:38:16;;;;;;;1.83;1.35;;;36.40;31.90;;;;;;4983786;28;20519;-75
2022/08/05 11:41:01;;;;;;;1.00;0.93;;;36.30;32.20;;;;;;5005535;28;20048;-74
2022/08/05 11:43:26;;;;;;;2.25;1.10;;;36.30;31.80;;;;;;5013268;28;20041;-73
2022/08/05 11:45:52;;;;;;;1.88;1.00;;;36.30;32.30;;;;;;5020596;28;20044;-73
2022/08/05 11:48:17;;;;;;;6.40;1.52;;;36.40;32.30;;;;;;5009859;28;20076;-73
2022/08/05 11:50:43;;;;;;;1.42;1.10;;;36.50;32.20;;;;;;5029282;28;20548;-73
2022/08/05 11:53:08;;;;;;;0.93;0.93;;;36.60;32.00;;;;;;5023807;28;20582;-73
2022/08/05 11:55:34;;;;;;;1.08;0.95;;;36.60;31.80;;;;;;5001802;28;20563;-74
2022/08/05 11:57:59;;;;;;;1.25;1.05;;;36.50;31.80;;;;;;5014900;28;20033;-74
2022/08/05 12:00:26;;;;;;;1.38;1.27;;;36.50;31.70;;;;;;5019387;28;20156;-74
2022/08/05 12:02:52;;;;;;;0.90;0.90;;;36.50;31.70;;;;;;5022487;28;20077;-74
2022/08/05 12:05:27;;;;;;;1.23;1.13;;;36.50;31.70;;;;;;5004396;28;20033;-73
2022/08/05 12:07:56;;;;;;;2.05;1.10;;;36.60;31.70;;;;;;5000184;28;20042;-73
2022/08/05 12:10:22;;;;;;;1.73;1.20;;;36.60;31.60;;;;;;4984771;28;20034;-73
2022/08/05 12:12:47;;;;;;;1.15;1.10;;;36.70;31.70;;;;;;4945999;28;20048;-73
2022/08/05 12:15:20;;;;;;;3.85;1.48;;;36.70;31.60;;;;;;4980129;28;20038;-73
2022/08/05 12:17:45;;;;;;;1.58;1.13;;;36.90;31.50;;;;;;4999081;28;20128;-73
2022/08/05 12:20:11;;;;;;;1.02;0.90;;;37.10;31.70;;;;;;4967064;28;20154;-73
2022/08/05 12:22:37;;;;;;;1.40;0.93;;;37.20;31.60;;;;;;5005307;28;20048;-73
2022/08/05 12:25:03;;;;;;;1.90;1.05;;;37.40;31.50;;;;;;5012321;28;20026;-74
2022/08/05 12:27:31;;;;;;;3.50;1.30;;;37.50;31.40;;;;;;4972906;28;20033;-74
2022/08/05 12:30:11;;;;;;;2.30;1.00;;;37.60;31.20;;;;;;4987673;28;20073;-74
2022/08/05 12:32:45;;;;;;;1.40;1.30;;;37.70;31.10;;;;;;4991772;28;20041;-73
2022/08/05 12:35:14;;;;;;;1.50;1.25;;;37.70;31.00;;;;;;4987695;28;20029;-73
2022/08/05 12:37:39;;;;;;;2.05;1.05;;;37.70;31.00;;;;;;5008657;28;20037;-74
2022/08/05 12:40:09;;;;;;;1.40;1.20;;;37.80;30.90;;;;;;4981643;28;20091;-73
2022/08/05 12:42:35;;;;;;;1.50;1.27;;;37.80;30.80;;;;;;4993342;28;20120;-73
2022/08/05 12:45:04;;;;;;;1.50;1.40;;;37.80;30.80;;;;;;4993977;28;20382;-74
2022/08/05 12:47:31;;;;;;;4.05;1.20;;;37.80;30.90;;;;;;4997107;28;20124;-73
2022/08/05 12:49:56;;;;;;;1.30;1.20;;;37.80;30.90;;;;;;4997359;28;20135;-74